Time;durP1;ratioP1;P1;durP2;ratioP2;P2;SDS_P1;SDS_P2;PMS_P1;PMS_P2;Temp;Humidity;BMP_temperature;BMP_pressure;BME280_temperature;BME280_humidity;BME280_pressure;Samples;Min_cycle;Max_cycle;Signal;HPM_P1;HPM_P2
2023/11/20 00:01:34;;;;;;;1.23;0.20;;;12.30;99.90;;;;;;5013498;28;20064;-77
2023/11/20 00:04:02;;;;;;;1.88;1.30;;;12.10;99.90;;;;;;5012086;28;20077;-77
2023/11/20 00:06:28;;;;;;;1.42;0.20;;;12.30;99.90;;;;;;5011742;28;20042;-77
2023/11/20 00:08:53;;;;;;;0.90;0.40;;;12.10;99.90;;;;;;5012006;28;20049;-77
2023/11/20 00:11:19;;;;;;;1.92;0.20;;;12.30;99.90;;;;;;5004549;28;20038;-76
2023/11/20 00:13:46;;;;;;;1.88;0.47;;;12.20;99.90;;;;;;4992582;28;20046;-77
2023/11/20 00:16:12;;;;;;;3.50;0.73;;;12.20;99.90;;;;;;4992079;28;20042;-77
2023/11/20 00:18:38;;;;;;;3.92;0.57;;;12.20;99.90;;;;;;4993553;28;20046;-76
2023/11/20 00:21:05;;;;;;;4.72;1.38;;;12.30;99.90;;;;;;4993291;28;20053;-77
2023/11/20 00:23:30;;;;;;;17.52;2.47;;;12.40;99.90;;;;;;4992060;28;20534;-77
2023/11/20 00:25:56;;;;;;;12.77;2.60;;;12.40;99.90;;;;;;4993240;28;20113;-77
2023/11/20 00:28:21;;;;;;;13.23;2.25;;;12.40;99.90;;;;;;4993363;28;20513;-77
2023/11/20 00:30:47;;;;;;;17.10;2.92;;;12.50;99.90;;;;;;4992004;28;20120;-77
2023/11/20 00:33:13;;;;;;;12.60;3.10;;;12.40;99.90;;;;;;4993348;28;20109;-77
2023/11/20 00:35:41;;;;;;;11.70;2.72;;;12.50;99.90;;;;;;4991660;28;20049;-77
2023/11/20 00:38:07;;;;;;;14.68;3.53;;;12.60;99.90;;;;;;4991940;28;20084;-77
2023/11/20 00:40:33;;;;;;;16.23;3.13;;;12.60;99.90;;;;;;4992052;28;20478;-77
2023/11/20 00:42:59;;;;;;;13.85;3.08;;;12.80;99.90;;;;;;4993137;28;20118;-78
2023/11/20 00:45:24;;;;;;;16.95;3.58;;;12.60;99.90;;;;;;4991759;28;20038;-78
2023/11/20 00:47:50;;;;;;;19.85;4.00;;;12.60;99.90;;;;;;4993024;28;20034;-77
2023/11/20 00:50:15;;;;;;;10.38;2.90;;;12.90;99.90;;;;;;4992846;28;20118;-78
2023/11/20 00:52:41;;;;;;;15.40;3.40;;;12.80;99.90;;;;;;4991677;28;20041;-77
2023/11/20 00:55:12;;;;;;;19.13;3.65;;;12.70;99.90;;;;;;4991377;28;20088;-77
2023/11/20 00:57:38;;;;;;;14.82;3.63;;;12.90;99.90;;;;;;4991540;28;20052;-77
2023/11/20 01:00:08;;;;;;;13.52;3.55;;;12.80;99.90;;;;;;4991489;28;20085;-77
2023/11/20 01:02:34;;;;;;;20.48;3.15;;;12.80;99.90;;;;;;4975599;28;20041;-78
2023/11/20 01:05:00;;;;;;;22.42;3.42;;;13.00;99.90;;;;;;4992089;28;20413;-78
2023/11/20 01:07:29;;;;;;;15.85;3.75;;;12.80;99.90;;;;;;4991452;28;20049;-77
2023/11/20 01:09:55;;;;;;;13.82;2.92;;;12.80;99.90;;;;;;4991322;28;20042;-77
2023/11/20 01:12:20;;;;;;;14.77;2.92;;;12.70;99.90;;;;;;4992783;28;20418;-77
2023/11/20 01:14:46;;;;;;;13.45;2.53;;;12.90;99.90;;;;;;4991231;28;20041;-77
2023/11/20 01:17:11;;;;;;;11.57;2.33;;;13.00;99.90;;;;;;4992481;28;20038;-77
2023/11/20 01:19:37;;;;;;;7.05;2.17;;;12.80;99.90;;;;;;4991026;28;20057;-78
2023/11/20 01:22:02;;;;;;;10.32;2.00;;;12.80;99.90;;;;;;4992769;28;20045;-78
2023/11/20 01:24:28;;;;;;;9.10;2.20;;;12.80;99.90;;;;;;4991128;28;20129;-78
2023/11/20 01:26:56;;;;;;;6.60;1.90;;;12.80;99.90;;;;;;4991197;28;20053;-78
2023/11/20 01:29:22;;;;;;;9.93;2.63;;;12.90;99.90;;;;;;4998243;28;20054;-77
2023/11/20 01:31:48;;;;;;;7.43;2.50;;;12.90;99.90;;;;;;4998853;28;20127;-77
2023/11/20 01:34:14;;;;;;;10.07;2.47;;;13.00;99.90;;;;;;4991978;28;20125;-77
2023/11/20 01:36:39;;;;;;;9.68;2.33;;;13.00;99.90;;;;;;4996638;28;20066;-77
2023/11/20 01:39:08;;;;;;;10.52;2.42;;;13.00;99.90;;;;;;4998411;28;20493;-77
2023/11/20 01:41:34;;;;;;;2.75;1.45;;;13.00;99.90;;;;;;4992339;28;20065;-77
2023/11/20 01:43:59;;;;;;;3.83;1.50;;;13.10;99.90;;;;;;4998736;28;20042;-77
2023/11/20 01:46:28;;;;;;;3.40;1.10;;;13.00;99.90;;;;;;4998742;28;20050;-77
2023/11/20 01:48:54;;;;;;;8.95;1.33;;;12.80;99.90;;;;;;5000140;28;20125;-77
2023/11/20 01:51:20;;;;;;;1.95;1.08;;;13.00;99.90;;;;;;5000035;28;20070;-77
2023/11/20 01:53:46;;;;;;;10.13;2.08;;;12.90;99.90;;;;;;4998701;28;20409;-77
2023/11/20 01:56:13;;;;;;;3.17;1.23;;;13.00;99.90;;;;;;4997319;28;20054;-77
2023/11/20 01:58:38;;;;;;;5.55;1.40;;;12.90;99.90;;;;;;4996706;28;20046;-77
2023/11/20 02:01:05;;;;;;;6.03;1.35;;;13.00;99.90;;;;;;4995554;28;20045;-77
2023/11/20 02:03:32;;;;;;;8.90;2.33;;;12.90;99.90;;;;;;4997502;28;20050;-77
2023/11/20 02:05:57;;;;;;;2.08;0.95;;;13.00;99.90;;;;;;4996774;28;20034;-77
2023/11/20 02:08:28;;;;;;;6.85;1.60;;;12.80;99.90;;;;;;4992692;28;20053;-77
2023/11/20 02:10:55;;;;;;;6.30;1.10;;;12.80;99.90;;;;;;4994986;28;20413;-77
2023/11/20 02:13:20;;;;;;;3.33;1.35;;;12.80;99.90;;;;;;4995900;28;20042;-77
2023/11/20 02:15:47;;;;;;;4.03;1.30;;;12.90;99.90;;;;;;4993797;28;20521;-77
2023/11/20 02:18:29;;;;;;;4.03;1.10;;;13.00;99.90;;;;;;5002395;28;20046;-77
2023/11/20 02:20:55;;;;;;;2.57;0.63;;;13.00;99.90;;;;;;5000083;28;20124;-77
2023/11/20 02:23:21;;;;;;;2.15;0.68;;;12.80;99.90;;;;;;4996304;28;20333;-77
2023/11/20 02:25:50;;;;;;;3.80;0.65;;;12.80;99.90;;;;;;4999860;28;20074;-77
2023/11/20 02:28:28;;;;;;;0.60;0.20;;;12.80;99.90;;;;;;5002889;28;20094;-77
2023/11/20 02:30:55;;;;;;;2.15;0.32;;;13.00;99.90;;;;;;5004256;28;20038;-77
2023/11/20 02:33:20;;;;;;;1.42;0.30;;;13.00;99.90;;;;;;4998732;28;20084;-77
2023/11/20 02:35:46;;;;;;;1.40;0.30;;;13.00;99.90;;;;;;5003693;28;20046;-77
2023/11/20 02:38:11;;;;;;;2.17;1.27;;;12.80;99.90;;;;;;5001574;28;20042;-77
2023/11/20 02:40:38;;;;;;;0.80;0.35;;;12.90;99.90;;;;;;5005222;28;20057;-77
2023/11/20 02:43:05;;;;;;;0.80;0.30;;;12.80;99.90;;;;;;5004906;28;20107;-77
2023/11/20 02:45:35;;;;;;;1.42;0.20;;;13.00;99.90;;;;;;4990102;28;20050;-77
2023/11/20 02:48:00;;;;;;;0.95;0.40;;;12.70;99.90;;;;;;5005305;28;20113;-77
2023/11/20 02:50:28;;;;;;;1.98;0.55;;;12.80;99.90;;;;;;5009521;28;20070;-77
2023/11/20 02:52:54;;;;;;;0.20;0.13;;;12.80;99.90;;;;;;5018434;28;20099;-77
2023/11/20 02:55:20;;;;;;;1.80;0.38;;;12.90;99.90;;;;;;5006936;28;20038;-77
2023/11/20 02:57:46;;;;;;;2.88;0.30;;;12.80;99.90;;;;;;5018546;28;20133;-77
2023/11/20 03:00:12;;;;;;;0.52;0.30;;;12.80;99.90;;;;;;5021267;28;20046;-77
2023/11/20 03:02:38;;;;;;;1.48;0.40;;;12.90;99.90;;;;;;5016455;28;20046;-77
2023/11/20 03:05:07;;;;;;;1.48;0.70;;;12.80;99.90;;;;;;5017361;28;20501;-77
2023/11/20 03:07:33;;;;;;;1.02;0.32;;;12.70;99.90;;;;;;5021568;28;20076;-77
2023/11/20 03:09:59;;;;;;;1.20;0.30;;;13.00;99.90;;;;;;5025660;28;20095;-77
2023/11/20 03:12:24;;;;;;;0.80;0.40;;;12.80;99.90;;;;;;5012099;28;20432;-77
2023/11/20 03:14:50;;;;;;;1.80;0.50;;;13.00;99.90;;;;;;5026381;28;20064;-77
2023/11/20 03:17:15;;;;;;;5.63;0.60;;;13.00;99.90;;;;;;5017528;28;20095;-77
2023/11/20 03:19:41;;;;;;;1.35;0.60;;;13.00;99.90;;;;;;5016825;28;20180;-77
2023/11/20 03:22:07;;;;;;;0.43;0.38;;;12.80;99.90;;;;;;5016552;28;20080;-77
2023/11/20 03:24:32;;;;;;;3.42;1.00;;;12.90;99.90;;;;;;5018298;28;20069;-77
2023/11/20 03:26:58;;;;;;;0.70;0.30;;;12.90;99.90;;;;;;5021435;28;20034;-77
2023/11/20 03:29:24;;;;;;;0.70;0.30;;;13.00;99.90;;;;;;5024408;28;20049;-77
2023/11/20 03:31:49;;;;;;;0.55;0.20;;;12.80;99.90;;;;;;5000693;28;20248;-77
2023/11/20 03:34:15;;;;;;;0.98;0.40;;;12.80;99.90;;;;;;5025383;28;20042;-77
2023/11/20 03:36:42;;;;;;;0.52;0.30;;;12.90;99.90;;;;;;5008596;28;20095;-77
2023/11/20 03:39:08;;;;;;;1.25;0.35;;;13.00;99.90;;;;;;5023671;28;20060;-77
2023/11/20 03:41:33;;;;;;;1.48;0.25;;;12.80;99.90;;;;;;5023379;28;20042;-77
2023/11/20 03:43:59;;;;;;;0.70;0.40;;;13.00;99.90;;;;;;5016942;28;20038;-77
2023/11/20 03:46:25;;;;;;;2.13;0.32;;;13.00;99.90;;;;;;5022852;28;20045;-77
2023/11/20 03:48:50;;;;;;;0.20;0.20;;;13.00;99.90;;;;;;5020927;28;20037;-77
2023/11/20 03:51:17;;;;;;;1.42;0.30;;;13.00;99.90;;;;;;5020305;28;20042;-77
2023/11/20 03:53:43;;;;;;;3.90;0.40;;;13.00;99.90;;;;;;5019074;28;20046;-77
2023/11/20 03:56:10;;;;;;;0.45;0.35;;;12.80;99.90;;;;;;5018929;28;20045;-77
2023/11/20 03:58:36;;;;;;;0.82;0.50;;;12.80;99.90;;;;;;5019150;28;20048;-77
2023/11/20 04:01:02;;;;;;;1.73;0.80;;;12.90;99.90;;;;;;5019046;28;20038;-76
2023/11/20 04:03:28;;;;;;;2.22;0.93;;;12.80;99.90;;;;;;5017661;28;20071;-75
2023/11/20 04:05:53;;;;;;;1.50;1.00;;;13.10;99.90;;;;;;5017973;28;20053;-75
2023/11/20 04:08:19;;;;;;;2.97;1.17;;;12.80;99.90;;;;;;5019579;28;20038;-75
2023/11/20 04:10:44;;;;;;;2.53;0.98;;;12.90;99.90;;;;;;5018344;28;20042;-75
2023/11/20 04:13:10;;;;;;;4.40;1.80;;;12.90;99.90;;;;;;5018040;28;20061;-75
2023/11/20 04:15:36;;;;;;;7.10;2.28;;;12.90;99.90;;;;;;4993644;28;20044;-75
2023/11/20 04:18:02;;;;;;;4.95;1.55;;;12.80;99.90;;;;;;5018498;28;20042;-75
2023/11/20 04:20:28;;;;;;;5.05;1.80;;;13.00;99.90;;;;;;5014976;28;20120;-75
2023/11/20 04:22:54;;;;;;;5.30;1.77;;;12.90;99.90;;;;;;5020060;28;20080;-75
2023/11/20 04:25:20;;;;;;;7.25;2.33;;;13.00;99.90;;;;;;5020263;28;20041;-75
2023/11/20 04:27:51;;;;;;;9.43;1.95;;;12.80;99.90;;;;;;5021067;28;20069;-75
2023/11/20 04:30:20;;;;;;;9.10;2.95;;;12.80;99.90;;;;;;5021148;28;20049;-75
2023/11/20 04:32:46;;;;;;;10.77;3.33;;;12.90;99.90;;;;;;5021254;28;20093;-75
2023/11/20 04:35:12;;;;;;;13.68;3.97;;;12.90;99.90;;;;;;5019607;28;20069;-75
2023/11/20 04:37:38;;;;;;;13.80;3.83;;;12.90;99.90;;;;;;5019628;28;20084;-77
2023/11/20 04:40:04;;;;;;;12.27;4.70;;;13.00;99.90;;;;;;5019067;28;20042;-77
2023/11/20 04:42:30;;;;;;;15.73;4.05;;;12.80;99.90;;;;;;5019776;28;20038;-77
2023/11/20 04:44:55;;;;;;;15.00;4.50;;;13.00;99.90;;;;;;5019444;28;20098;-77
2023/11/20 04:47:23;;;;;;;11.45;3.10;;;12.90;99.90;;;;;;5019227;28;20046;-77
2023/11/20 04:49:49;;;;;;;7.70;2.70;;;12.80;99.90;;;;;;5018900;28;20065;-77
2023/11/20 04:52:15;;;;;;;6.38;2.30;;;12.80;99.90;;;;;;5019165;28;20029;-77
2023/11/20 04:54:41;;;;;;;7.30;1.98;;;13.00;99.90;;;;;;5019076;28;20038;-77
2023/11/20 04:57:09;;;;;;;5.20;1.60;;;12.90;99.90;;;;;;5018549;28;20046;-77
2023/11/20 04:59:35;;;;;;;5.60;1.38;;;12.90;99.90;;;;;;5019160;28;20046;-77
2023/11/20 05:02:01;;;;;;;3.63;1.00;;;13.10;99.90;;;;;;5020623;28;20088;-77
2023/11/20 05:04:26;;;;;;;3.40;1.00;;;13.00;99.90;;;;;;5019480;28;20052;-77
2023/11/20 05:06:52;;;;;;;1.98;0.70;;;13.00;99.90;;;;;;5022027;28;20443;-77
2023/11/20 05:09:19;;;;;;;4.35;0.80;;;12.80;99.90;;;;;;5019535;28;20076;-77
2023/11/20 05:11:47;;;;;;;2.83;0.60;;;13.00;99.90;;;;;;5017738;28;20038;-77
2023/11/20 05:14:13;;;;;;;1.25;0.55;;;13.00;99.90;;;;;;5020898;28;20034;-77
2023/11/20 05:16:38;;;;;;;0.70;0.52;;;12.80;99.90;;;;;;5019606;28;20052;-77
2023/11/20 05:19:04;;;;;;;1.48;0.50;;;12.90;99.90;;;;;;5019565;28;20525;-77
2023/11/20 05:21:29;;;;;;;1.05;0.60;;;12.80;99.90;;;;;;5019327;28;20053;-77
2023/11/20 05:23:58;;;;;;;1.48;0.65;;;12.80;99.90;;;;;;5018220;28;20065;-76
2023/11/20 05:26:24;;;;;;;2.00;0.63;;;12.90;99.90;;;;;;5000638;28;20500;-77
2023/11/20 05:28:54;;;;;;;1.98;0.50;;;13.00;99.90;;;;;;5016978;28;20034;-77
2023/11/20 05:31:23;;;;;;;2.08;0.60;;;12.70;99.90;;;;;;5018787;28;20044;-77
2023/11/20 05:33:48;;;;;;;1.13;0.50;;;12.90;99.90;;;;;;5016710;28;20042;-77
2023/11/20 05:36:14;;;;;;;2.40;0.45;;;12.70;99.90;;;;;;5017498;28;20124;-76
2023/11/20 05:38:41;;;;;;;2.08;0.60;;;12.70;99.90;;;;;;5018308;28;20052;-76
2023/11/20 05:41:09;;;;;;;1.55;0.75;;;12.70;99.90;;;;;;5016752;28;20033;-76
2023/11/20 05:43:36;;;;;;;3.80;1.00;;;12.70;99.90;;;;;;5017683;28;20050;-76
2023/11/20 05:46:03;;;;;;;1.13;0.60;;;12.80;99.90;;;;;;5015599;28;20042;-76
2023/11/20 05:48:28;;;;;;;2.20;1.20;;;12.90;99.90;;;;;;5016120;28;20064;-76
2023/11/20 05:50:54;;;;;;;2.17;0.80;;;12.90;99.90;;;;;;5018864;28;20054;-76
2023/11/20 05:53:20;;;;;;;2.65;0.68;;;12.80;99.90;;;;;;5022256;28;20061;-76
2023/11/20 05:55:47;;;;;;;2.42;0.70;;;12.70;99.90;;;;;;5021737;28;20515;-76
2023/11/20 05:58:12;;;;;;;1.35;0.60;;;12.60;99.90;;;;;;5004623;28;20069;-77
2023/11/20 06:00:38;;;;;;;3.03;0.82;;;12.90;99.90;;;;;;5021116;28;20509;-77
2023/11/20 06:03:05;;;;;;;2.72;1.00;;;12.60;99.90;;;;;;5021903;28;20053;-76
2023/11/20 06:05:30;;;;;;;3.03;1.30;;;12.60;99.90;;;;;;5020566;28;20042;-76
2023/11/20 06:07:56;;;;;;;2.00;1.35;;;12.60;99.90;;;;;;5020065;28;20095;-77
2023/11/20 06:10:21;;;;;;;2.90;2.05;;;12.80;99.90;;;;;;5020593;28;20038;-76
2023/11/20 06:12:47;;;;;;;3.22;1.33;;;12.60;99.90;;;;;;5020359;28;20088;-76
2023/11/20 06:15:12;;;;;;;3.55;2.63;;;12.70;99.90;;;;;;5019754;28;20030;-77
2023/11/20 06:17:38;;;;;;;3.50;1.58;;;12.60;99.90;;;;;;5019166;28;20045;-77
2023/11/20 06:20:05;;;;;;;3.10;1.40;;;12.80;99.90;;;;;;5020734;28;20121;-77
2023/11/20 06:22:31;;;;;;;3.00;1.35;;;12.60;99.90;;;;;;5019981;28;20038;-77
2023/11/20 06:24:57;;;;;;;3.67;1.13;;;12.60;99.90;;;;;;5017739;28;20684;-78
2023/11/20 06:27:22;;;;;;;3.17;1.00;;;12.70;99.90;;;;;;5017520;28;20064;-78
2023/11/20 06:29:48;;;;;;;2.72;1.05;;;12.60;99.90;;;;;;5016954;28;20091;-78
2023/11/20 06:32:14;;;;;;;3.67;1.13;;;12.70;99.90;;;;;;5017303;28;20536;-78
2023/11/20 06:34:40;;;;;;;3.10;1.35;;;12.80;99.90;;;;;;5017488;28;20045;-77
2023/11/20 06:37:06;;;;;;;2.58;1.10;;;12.70;99.90;;;;;;5018778;28;20089;-77
2023/11/20 06:39:31;;;;;;;2.70;0.73;;;12.60;99.90;;;;;;5020420;28;20117;-77
2023/11/20 06:41:57;;;;;;;1.63;0.85;;;12.70;99.90;;;;;;5018530;28;20045;-77
2023/11/20 06:44:23;;;;;;;2.30;0.65;;;12.60;99.90;;;;;;5019460;28;20049;-77
2023/11/20 06:46:50;;;;;;;5.30;2.13;;;12.50;99.90;;;;;;5017368;28;20029;-76
2023/11/20 06:49:15;;;;;;;1.13;0.70;;;12.60;99.90;;;;;;5018841;28;20034;-75
2023/11/20 06:51:43;;;;;;;1.35;1.00;;;12.50;99.90;;;;;;5017314;28;20041;-76
2023/11/20 06:54:08;;;;;;;2.33;0.60;;;12.50;99.90;;;;;;5015184;28;20034;-75
2023/11/20 06:56:35;;;;;;;1.75;0.88;;;12.60;99.90;;;;;;5016609;28;20056;-75
2023/11/20 06:59:01;;;;;;;1.88;0.80;;;12.60;99.90;;;;;;5015766;28;20042;-75
2023/11/20 07:01:27;;;;;;;1.13;0.50;;;12.60;99.90;;;;;;5015226;28;20048;-75
2023/11/20 07:03:53;;;;;;;1.60;0.60;;;12.50;99.90;;;;;;5015707;28;20045;-75
2023/11/20 07:06:19;;;;;;;3.17;0.60;;;12.60;99.90;;;;;;5015797;28;20046;-76
2023/11/20 07:08:45;;;;;;;1.73;0.65;;;12.60;99.90;;;;;;5015462;28;20044;-75
2023/11/20 07:11:10;;;;;;;2.00;0.70;;;12.60;99.90;;;;;;5013988;28;20037;-74
2023/11/20 07:13:36;;;;;;;5.72;0.90;;;12.50;99.90;;;;;;5013786;28;20084;-75
2023/11/20 07:16:02;;;;;;;1.15;0.52;;;12.50;99.90;;;;;;5013201;28;20077;-75
2023/11/20 07:18:28;;;;;;;0.98;0.40;;;12.60;99.90;;;;;;5013443;28;20092;-74
2023/11/20 07:20:54;;;;;;;1.70;0.73;;;12.60;99.90;;;;;;5014527;28;20046;-74
2023/11/20 07:23:21;;;;;;;2.75;0.70;;;12.40;99.90;;;;;;5014127;28;20041;-75
2023/11/20 07:25:47;;;;;;;3.00;0.60;;;12.50;99.90;;;;;;5014101;28;20080;-75
2023/11/20 07:28:13;;;;;;;3.50;0.70;;;12.40;99.90;;;;;;5014575;28;20078;-75
2023/11/20 07:30:40;;;;;;;3.75;0.70;;;12.50;99.90;;;;;;5015518;28;20078;-75
2023/11/20 07:33:05;;;;;;;1.45;0.80;;;12.50;99.90;;;;;;5014949;28;20095;-75
2023/11/20 07:35:32;;;;;;;2.63;0.90;;;12.40;99.90;;;;;;5017026;28;20398;-75
2023/11/20 07:37:57;;;;;;;2.83;1.00;;;12.40;99.90;;;;;;5015789;28;20509;-75
2023/11/20 07:40:24;;;;;;;2.88;0.80;;;12.30;99.90;;;;;;5017246;28;20042;-75
2023/11/20 07:42:50;;;;;;;1.30;0.68;;;12.30;99.90;;;;;;5015580;28;20049;-76
2023/11/20 07:45:16;;;;;;;1.27;0.82;;;12.40;99.90;;;;;;5014615;28;20037;-75
2023/11/20 07:47:42;;;;;;;2.70;0.80;;;12.30;99.90;;;;;;5013993;28;20124;-75
2023/11/20 07:50:12;;;;;;;6.15;0.82;;;12.30;99.90;;;;;;5013977;28;20041;-75
2023/11/20 07:52:38;;;;;;;1.13;0.65;;;12.30;99.90;;;;;;5015471;28;20045;-75
2023/11/20 07:55:04;;;;;;;1.08;0.70;;;12.40;99.90;;;;;;5015091;28;20052;-75
2023/11/20 07:57:29;;;;;;;1.27;0.43;;;12.30;99.90;;;;;;5006668;28;20084;-75
2023/11/20 07:59:55;;;;;;;2.35;0.68;;;12.40;99.90;;;;;;5004104;28;20042;-75
2023/11/20 08:02:21;;;;;;;1.75;0.60;;;12.30;99.90;;;;;;5004597;28;20041;-75
2023/11/20 08:04:47;;;;;;;1.55;0.63;;;12.40;99.90;;;;;;4989160;28;20105;-76
2023/11/20 08:07:16;;;;;;;2.55;0.82;;;12.40;99.90;;;;;;5003044;28;20042;-75
2023/11/20 08:09:42;;;;;;;1.48;0.63;;;12.20;99.90;;;;;;5005986;28;20516;-75
2023/11/20 08:12:07;;;;;;;2.60;0.70;;;12.40;99.90;;;;;;5010418;28;20053;-75
2023/11/20 08:14:34;;;;;;;1.02;0.63;;;12.20;99.90;;;;;;5004485;28;20046;-75
2023/11/20 08:17:00;;;;;;;1.52;0.98;;;12.30;99.90;;;;;;5004301;28;20038;-75
2023/11/20 08:19:27;;;;;;;3.17;1.10;;;12.20;99.90;;;;;;5010628;28;20095;-75
2023/11/20 08:21:53;;;;;;;3.28;1.45;;;12.30;99.90;;;;;;5012490;28;20516;-75
2023/11/20 08:24:20;;;;;;;7.53;1.80;;;12.30;99.90;;;;;;5014358;28;20049;-75
2023/11/20 08:26:46;;;;;;;4.18;2.10;;;12.20;99.90;;;;;;5012388;28;20538;-75
2023/11/20 08:29:16;;;;;;;11.27;3.08;;;12.20;99.90;;;;;;5012870;28;20598;-75
2023/11/20 08:31:43;;;;;;;9.45;2.50;;;12.20;99.90;;;;;;4998035;28;20030;-75
2023/11/20 08:34:08;;;;;;;16.52;3.50;;;12.40;99.90;;;;;;5016101;28;20037;-76
2023/11/20 08:36:34;;;;;;;11.73;3.28;;;12.30;99.90;;;;;;5015710;28;20112;-75
2023/11/20 08:39:00;;;;;;;8.68;3.63;;;12.30;99.90;;;;;;5015347;28;20085;-75
2023/11/20 08:41:25;;;;;;;10.15;3.35;;;12.20;99.90;;;;;;5016698;28;20049;-75
2023/11/20 08:43:51;;;;;;;8.80;3.10;;;12.30;99.90;;;;;;5013367;28;20493;-75
2023/11/20 08:46:16;;;;;;;14.77;3.40;;;12.30;99.90;;;;;;5016437;28;20420;-75
2023/11/20 08:48:42;;;;;;;14.57;3.70;;;12.20;99.90;;;;;;5015773;28;20386;-75
2023/11/20 08:51:08;;;;;;;16.65;4.35;;;12.40;99.90;;;;;;5016369;28;20409;-75
2023/11/20 08:53:34;;;;;;;16.58;3.20;;;12.30;99.90;;;;;;5017207;28;20096;-75
2023/11/20 08:56:00;;;;;;;23.65;4.22;;;12.30;99.90;;;;;;5016293;28;20046;-75
2023/11/20 08:58:27;;;;;;;13.63;3.47;;;12.20;99.90;;;;;;5014481;28;20563;-75
2023/11/20 09:00:52;;;;;;;17.30;3.67;;;12.30;99.90;;;;;;5014165;28;20465;-75
2023/11/20 09:03:18;;;;;;;23.25;3.78;;;12.20;99.90;;;;;;5014255;28;20147;-75
2023/11/20 09:05:43;;;;;;;11.35;3.58;;;12.20;99.90;;;;;;5013911;28;20037;-75
2023/11/20 09:08:09;;;;;;;18.75;4.20;;;12.30;99.90;;;;;;5013673;28;20042;-75
2023/11/20 09:10:34;;;;;;;12.68;3.13;;;12.30;99.90;;;;;;5013553;28;20041;-75
2023/11/20 09:13:01;;;;;;;19.77;4.15;;;12.20;99.90;;;;;;5012584;28;20045;-75
2023/11/20 09:15:27;;;;;;;17.52;5.00;;;12.30;99.90;;;;;;5012975;28;20038;-75
2023/11/20 09:17:52;;;;;;;18.73;3.92;;;12.40;99.90;;;;;;5015587;28;20122;-75
2023/11/20 09:20:22;;;;;;;15.35;5.03;;;12.40;99.90;;;;;;5012444;28;20045;-75
2023/11/20 09:22:48;;;;;;;24.08;5.32;;;12.30;99.90;;;;;;5013450;28;20042;-74
2023/11/20 09:25:14;;;;;;;18.52;4.93;;;12.40;99.90;;;;;;5011620;28;20037;-75
2023/11/20 09:27:40;;;;;;;23.70;4.35;;;12.20;99.90;;;;;;5012083;28;20122;-74
2023/11/20 09:30:07;;;;;;;15.00;3.72;;;12.30;99.90;;;;;;5014046;28;20045;-75
2023/11/20 09:32:33;;;;;;;17.27;4.03;;;12.30;99.90;;;;;;5014349;28;20045;-75
2023/11/20 09:34:59;;;;;;;22.15;4.55;;;12.20;99.90;;;;;;5012807;28;20064;-75
2023/11/20 09:37:24;;;;;;;18.88;3.67;;;12.40;99.90;;;;;;5014954;28;20038;-76
2023/11/20 09:39:51;;;;;;;28.27;5.03;;;12.40;99.90;;;;;;5012263;28;20045;-76
2023/11/20 09:42:22;;;;;;;23.70;3.88;;;12.40;99.90;;;;;;5018579;28;20042;-76
2023/11/20 09:44:49;;;;;;;18.90;3.78;;;12.30;99.90;;;;;;5013468;28;20057;-78
2023/11/20 09:47:16;;;;;;;19.77;4.05;;;12.20;99.90;;;;;;5017919;28;20092;-78
2023/11/20 09:49:44;;;;;;;14.82;4.25;;;12.20;99.90;;;;;;5013902;28;20042;-77
2023/11/20 09:52:10;;;;;;;9.75;3.58;;;12.20;99.90;;;;;;5017679;28;20049;-78
2023/11/20 09:54:41;;;;;;;15.98;4.03;;;12.30;99.90;;;;;;5016123;28;20080;-78
2023/11/20 09:57:09;;;;;;;14.73;3.08;;;12.20;99.90;;;;;;5019345;28;20053;-78
2023/11/20 09:59:35;;;;;;;18.75;3.42;;;12.30;99.90;;;;;;5016287;28;20481;-78
2023/11/20 10:02:02;;;;;;;18.52;2.95;;;12.30;99.90;;;;;;5017610;28;20072;-78
2023/11/20 10:04:29;;;;;;;15.05;3.45;;;12.30;99.90;;;;;;5014857;28;20109;-79
2023/11/20 10:06:54;;;;;;;14.73;3.05;;;12.40;99.90;;;;;;5018223;28;20091;-78
2023/11/20 10:09:22;;;;;;;13.23;3.17;;;12.30;99.90;;;;;;5019589;28;20069;-78
2023/11/20 10:11:52;;;;;;;18.20;3.67;;;12.20;99.90;;;;;;5015681;28;20109;-78
2023/11/20 10:14:20;;;;;;;19.92;3.67;;;12.20;99.90;;;;;;5016481;28;20097;-79
2023/11/20 10:16:46;;;;;;;21.20;4.55;;;12.20;99.90;;;;;;5018589;28;20041;-79
2023/11/20 10:19:14;;;;;;;18.25;3.42;;;12.40;99.90;;;;;;5019000;28;20041;-79
2023/11/20 10:21:40;;;;;;;16.88;3.35;;;12.40;99.90;;;;;;5018865;28;20085;-78
2023/11/20 10:24:07;;;;;;;15.15;4.22;;;12.30;99.90;;;;;;5017369;28;20056;-79
2023/11/20 10:26:35;;;;;;;17.35;3.60;;;12.30;99.90;;;;;;5017481;28;20030;-79
2023/11/20 10:29:01;;;;;;;17.23;3.60;;;12.40;99.90;;;;;;5017583;28;20109;-79
2023/11/20 10:31:27;;;;;;;19.13;3.35;;;12.50;99.90;;;;;;5014949;28;20127;-78
2023/11/20 10:34:06;;;;;;;19.05;4.47;;;12.40;99.90;;;;;;5014396;28;20173;-78
2023/11/20 10:36:34;;;;;;;16.42;4.05;;;12.30;99.90;;;;;;5015063;28;20048;-78
2023/11/20 10:39:00;;;;;;;21.13;3.67;;;12.40;99.90;;;;;;5020479;28;20038;-78
2023/11/20 10:41:26;;;;;;;24.90;4.75;;;12.50;99.90;;;;;;5021927;28;20456;-78
2023/11/20 10:43:52;;;;;;;22.08;3.60;;;12.50;99.90;;;;;;5020686;28;20038;-78
2023/11/20 10:46:17;;;;;;;19.10;4.13;;;12.40;99.90;;;;;;5022023;28;20038;-79
2023/11/20 10:48:43;;;;;;;26.83;4.03;;;12.50;99.90;;;;;;5029168;28;20091;-78
2023/11/20 10:51:11;;;;;;;18.40;3.15;;;12.60;99.90;;;;;;5024708;28;20116;-78
2023/11/20 10:53:41;;;;;;;16.77;4.07;;;12.50;99.90;;;;;;5022316;28;20045;-78
2023/11/20 10:56:08;;;;;;;16.88;3.80;;;12.50;99.90;;;;;;5023485;28;20041;-78
2023/11/20 10:58:35;;;;;;;21.90;3.88;;;12.60;99.90;;;;;;5026054;28;20045;-79
2023/11/20 11:01:01;;;;;;;22.27;4.28;;;12.70;99.90;;;;;;5028692;28;20105;-79
2023/11/20 11:03:28;;;;;;;21.45;3.95;;;12.70;99.90;;;;;;5022499;28;20053;-78
2023/11/20 11:05:55;;;;;;;18.65;4.25;;;12.80;99.90;;;;;;5022584;28;20437;-78
2023/11/20 11:08:23;;;;;;;21.50;3.80;;;12.70;99.90;;;;;;5022352;28;20037;-78
2023/11/20 11:10:49;;;;;;;21.05;3.90;;;12.60;99.90;;;;;;5018095;28;20419;-78
2023/11/20 11:13:18;;;;;;;12.70;3.45;;;12.70;99.90;;;;;;5011232;28;20085;-78
2023/11/20 11:15:48;;;;;;;23.35;4.63;;;12.80;99.90;;;;;;5010374;28;20037;-77
2023/11/20 11:18:19;;;;;;;24.30;3.70;;;12.70;99.90;;;;;;4999170;28;20042;-78
2023/11/20 11:20:52;;;;;;;23.05;3.92;;;12.60;99.90;;;;;;4999984;28;20049;-79
2023/11/20 11:23:24;;;;;;;16.42;3.67;;;12.60;99.90;;;;;;5000144;28;20042;-78
2023/11/20 11:26:14;;;;;;;19.10;4.00;;;12.50;99.90;;;;;;4999822;28;20038;-79
2023/11/20 11:28:44;;;;;;;20.73;4.43;;;12.50;99.90;;;;;;5001460;28;20281;-78
2023/11/20 11:31:12;;;;;;;19.13;4.70;;;12.40;99.90;;;;;;5004345;28;20042;-78
2023/11/20 11:34:11;;;;;;;23.83;5.20;;;12.50;99.90;;;;;;5003403;28;20048;-77
2023/11/20 11:37:21;;;;;;;16.33;3.63;;;12.40;99.90;;;;;;4999101;28;20046;-78
2023/11/20 11:39:57;;;;;;;15.23;3.88;;;12.50;99.90;;;;;;5003822;28;20057;-78
2023/11/20 11:42:37;;;;;;;16.65;3.83;;;12.40;99.90;;;;;;5002097;28;20080;-78
2023/11/20 11:45:10;;;;;;;11.00;3.67;;;12.70;99.90;;;;;;5000427;28;20049;-77
2023/11/20 11:47:39;;;;;;;22.15;4.03;;;12.70;99.90;;;;;;5000271;28;20045;-78
2023/11/20 11:50:06;;;;;;;19.50;3.50;;;12.60;99.90;;;;;;5002687;28;20039;-78
2023/11/20 11:52:33;;;;;;;27.25;4.38;;;12.40;99.90;;;;;;5000994;28;20046;-78
2023/11/20 11:55:19;;;;;;;13.32;3.40;;;12.50;99.90;;;;;;4985267;28;20065;-78
2023/11/20 11:57:54;;;;;;;13.25;3.88;;;12.50;99.90;;;;;;4984777;28;20050;-77
2023/11/20 12:00:22;;;;;;;15.85;2.65;;;12.50;99.90;;;;;;5001260;28;20093;-78
2023/11/20 12:02:51;;;;;;;13.90;3.03;;;12.30;99.90;;;;;;4982516;28;20517;-77
2023/11/20 12:05:24;;;;;;;11.63;2.92;;;12.40;99.90;;;;;;4999746;28;20042;-78
2023/11/20 12:07:51;;;;;;;17.23;3.13;;;12.40;99.90;;;;;;5006848;28;20065;-78
2023/11/20 12:10:37;;;;;;;13.90;3.60;;;12.30;99.90;;;;;;4998405;28;20042;-78
2023/11/20 12:13:03;;;;;;;20.77;5.20;;;12.40;99.90;;;;;;5008220;28;20038;-78
2023/11/20 12:15:42;;;;;;;20.88;3.33;;;12.30;99.90;;;;;;5016843;28;20121;-75
2023/11/20 12:18:25;;;;;;;12.25;3.50;;;12.40;99.90;;;;;;5020041;28;20061;-77
2023/11/20 12:20:57;;;;;;;22.20;5.18;;;12.40;99.90;;;;;;5014228;28;20049;-76
2023/11/20 12:23:37;;;;;;;26.00;4.22;;;12.40;99.90;;;;;;5009672;28;20127;-76
2023/11/20 12:26:06;;;;;;;22.73;4.25;;;12.60;99.90;;;;;;4997581;28;20042;-77
2023/11/20 12:28:33;;;;;;;17.08;3.97;;;12.50;99.90;;;;;;4998561;28;20128;-77
2023/11/20 12:31:12;;;;;;;15.93;3.25;;;12.60;99.90;;;;;;4997412;28;20112;-76
2023/11/20 12:33:41;;;;;;;18.73;3.35;;;12.80;99.90;;;;;;4998301;28;20122;-77
2023/11/20 12:36:09;;;;;;;19.40;2.88;;;12.70;99.90;;;;;;5000887;28;20042;-77
2023/11/20 12:38:39;;;;;;;24.88;4.10;;;12.70;99.90;;;;;;5001183;28;20104;-77
2023/11/20 12:41:08;;;;;;;25.58;4.40;;;12.70;99.90;;;;;;4998356;28;20042;-76
2023/11/20 12:43:35;;;;;;;18.40;2.90;;;12.70;99.90;;;;;;5004830;28;20034;-76